sensor_id;sensor_type;location;lat;lon;timestamp;P1;durP1;ratioP1;P2;durP2;ratioP2
67861;SDS011;54665;51.462;6.698;2023-07-24T00:01:38;7.07;;;3.30;;
67861;SDS011;54665;51.462;6.698;2023-07-24T00:03:38;6.35;;;3.17;;
67861;SDS011;54665;51.462;6.698;2023-07-24T00:05:38;7.63;;;2.90;;
67861;SDS011;54665;51.462;6.698;2023-07-24T00:07:38;7.53;;;3.07;;
67861;SDS011;54665;51.462;6.698;2023-07-24T00:09:39;6.93;;;3.07;;
67861;SDS011;54665;51.462;6.698;2023-07-24T00:11:39;6.93;;;3.20;;
67861;SDS011;54665;51.462;6.698;2023-07-24T00:13:39;7.90;;;3.30;;
67861;SDS011;54665;51.462;6.698;2023-07-24T00:15:40;7.43;;;3.10;;
67861;SDS011;54665;51.462;6.698;2023-07-24T00:17:40;6.23;;;3.30;;
67861;SDS011;54665;51.462;6.698;2023-07-24T00:19:40;7.37;;;3.30;;
67861;SDS011;54665;51.462;6.698;2023-07-24T00:21:40;7.75;;;3.45;;
67861;SDS011;54665;51.462;6.698;2023-07-24T00:23:41;6.43;;;3.27;;
67861;SDS011;54665;51.462;6.698;2023-07-24T00:25:41;8.87;;;3.40;;
67861;SDS011;54665;51.462;6.698;2023-07-24T00:27:41;8.77;;;3.57;;
67861;SDS011;54665;51.462;6.698;2023-07-24T00:29:42;7.80;;;3.17;;
67861;SDS011;54665;51.462;6.698;2023-07-24T00:31:42;10.30;;;3.50;;
67861;SDS011;54665;51.462;6.698;2023-07-24T00:33:43;9.00;;;3.83;;
67861;SDS011;54665;51.462;6.698;2023-07-24T00:35:45;9.00;;;3.50;;
67861;SDS011;54665;51.462;6.698;2023-07-24T00:37:46;10.63;;;3.77;;
67861;SDS011;54665;51.462;6.698;2023-07-24T00:39:46;9.33;;;3.57;;
67861;SDS011;54665;51.462;6.698;2023-07-24T00:41:46;11.17;;;3.80;;
67861;SDS011;54665;51.462;6.698;2023-07-24T00:43:48;8.98;;;3.67;;
67861;SDS011;54665;51.462;6.698;2023-07-24T00:45:48;8.70;;;3.60;;
67861;SDS011;54665;51.462;6.698;2023-07-24T00:47:48;7.90;;;3.70;;
67861;SDS011;54665;51.462;6.698;2023-07-24T00:49:49;10.60;;;3.80;;
67861;SDS011;54665;51.462;6.698;2023-07-24T00:51:50;10.13;;;4.07;;
67861;SDS011;54665;51.462;6.698;2023-07-24T00:53:52;8.93;;;3.73;;
67861;SDS011;54665;51.462;6.698;2023-07-24T00:55:55;8.82;;;4.13;;
67861;SDS011;54665;51.462;6.698;2023-07-24T00:57:56;9.23;;;3.90;;
67861;SDS011;54665;51.462;6.698;2023-07-24T00:59:58;8.88;;;3.70;;
67861;SDS011;54665;51.462;6.698;2023-07-24T01:01:59;11.18;;;4.18;;
67861;SDS011;54665;51.462;6.698;2023-07-24T01:04:00;10.68;;;4.20;;
67861;SDS011;54665;51.462;6.698;2023-07-24T01:06:01;11.10;;;4.33;;
67861;SDS011;54665;51.462;6.698;2023-07-24T01:08:02;12.82;;;4.18;;
67861;SDS011;54665;51.462;6.698;2023-07-24T01:10:04;11.07;;;4.13;;
67861;SDS011;54665;51.462;6.698;2023-07-24T01:12:07;12.10;;;4.00;;
67861;SDS011;54665;51.462;6.698;2023-07-24T01:16:46;10.80;;;3.65;;
67861;SDS011;54665;51.462;6.698;2023-07-24T01:18:48;8.93;;;3.90;;
67861;SDS011;54665;51.462;6.698;2023-07-24T01:20:53;14.23;;;3.92;;
67861;SDS011;54665;51.462;6.698;2023-07-24T01:25:31;12.53;;;4.10;;
67861;SDS011;54665;51.462;6.698;2023-07-24T01:27:33;11.27;;;4.50;;
67861;SDS011;54665;51.462;6.698;2023-07-24T01:29:33;12.97;;;4.30;;
67861;SDS011;54665;51.462;6.698;2023-07-24T01:31:33;11.77;;;4.63;;
67861;SDS011;54665;51.462;6.698;2023-07-24T01:33:33;14.10;;;4.73;;
67861;SDS011;54665;51.462;6.698;2023-07-24T01:35:34;17.47;;;5.43;;
67861;SDS011;54665;51.462;6.698;2023-07-24T01:37:35;17.50;;;5.00;;
67861;SDS011;54665;51.462;6.698;2023-07-24T01:39:36;20.20;;;5.30;;
67861;SDS011;54665;51.462;6.698;2023-07-24T01:41:37;18.80;;;5.15;;
67861;SDS011;54665;51.462;6.698;2023-07-24T01:43:38;15.35;;;4.95;;
67861;SDS011;54665;51.462;6.698;2023-07-24T01:45:39;13.37;;;4.70;;
67861;SDS011;54665;51.462;6.698;2023-07-24T01:47:40;15.75;;;4.32;;
67861;SDS011;54665;51.462;6.698;2023-07-24T01:49:40;12.83;;;4.37;;
67861;SDS011;54665;51.462;6.698;2023-07-24T01:51:40;13.83;;;4.50;;
67861;SDS011;54665;51.462;6.698;2023-07-24T01:53:41;11.37;;;4.60;;
67861;SDS011;54665;51.462;6.698;2023-07-24T01:55:41;14.20;;;5.03;;
67861;SDS011;54665;51.462;6.698;2023-07-24T01:57:42;19.53;;;5.90;;
67861;SDS011;54665;51.462;6.698;2023-07-24T01:59:42;22.00;;;7.67;;
67861;SDS011;54665;51.462;6.698;2023-07-24T02:01:42;28.77;;;8.23;;
67861;SDS011;54665;51.462;6.698;2023-07-24T02:03:43;25.20;;;7.90;;
67861;SDS011;54665;51.462;6.698;2023-07-24T02:05:49;18.63;;;7.47;;
67861;SDS011;54665;51.462;6.698;2023-07-24T02:07:50;21.80;;;7.53;;
67861;SDS011;54665;51.462;6.698;2023-07-24T02:09:50;16.43;;;6.97;;
67861;SDS011;54665;51.462;6.698;2023-07-24T02:11:50;17.27;;;7.33;;
67861;SDS011;54665;51.462;6.698;2023-07-24T02:13:50;17.23;;;7.47;;
67861;SDS011;54665;51.462;6.698;2023-07-24T02:15:51;18.13;;;6.75;;
67861;SDS011;54665;51.462;6.698;2023-07-24T02:17:52;14.27;;;5.90;;
67861;SDS011;54665;51.462;6.698;2023-07-24T02:19:52;14.23;;;6.00;;
67861;SDS011;54665;51.462;6.698;2023-07-24T02:21:52;14.63;;;5.68;;
67861;SDS011;54665;51.462;6.698;2023-07-24T02:23:52;15.40;;;5.40;;
67861;SDS011;54665;51.462;6.698;2023-07-24T02:25:53;13.47;;;5.20;;
67861;SDS011;54665;51.462;6.698;2023-07-24T02:27:53;11.30;;;5.20;;
67861;SDS011;54665;51.462;6.698;2023-07-24T02:29:53;13.20;;;5.33;;
67861;SDS011;54665;51.462;6.698;2023-07-24T02:31:54;10.03;;;4.60;;
67861;SDS011;54665;51.462;6.698;2023-07-24T02:33:54;12.52;;;4.30;;
67861;SDS011;54665;51.462;6.698;2023-07-24T02:35:55;11.40;;;4.07;;
67861;SDS011;54665;51.462;6.698;2023-07-24T02:37:55;10.65;;;4.30;;
67861;SDS011;54665;51.462;6.698;2023-07-24T02:39:56;13.97;;;4.53;;
67861;SDS011;54665;51.462;6.698;2023-07-24T02:41:56;9.87;;;4.10;;
67861;SDS011;54665;51.462;6.698;2023-07-24T02:43:58;11.20;;;3.97;;
67861;SDS011;54665;51.462;6.698;2023-07-24T02:46:01;10.73;;;3.83;;
67861;SDS011;54665;51.462;6.698;2023-07-24T02:48:02;9.23;;;3.60;;
67861;SDS011;54665;51.462;6.698;2023-07-24T02:50:03;11.07;;;4.10;;
67861;SDS011;54665;51.462;6.698;2023-07-24T02:52:05;8.27;;;3.92;;
67861;SDS011;54665;51.462;6.698;2023-07-24T02:54:06;9.00;;;3.73;;
67861;SDS011;54665;51.462;6.698;2023-07-24T02:56:06;10.43;;;4.20;;
67861;SDS011;54665;51.462;6.698;2023-07-24T02:58:06;10.65;;;3.95;;
67861;SDS011;54665;51.462;6.698;2023-07-24T03:00:07;8.10;;;3.80;;
67861;SDS011;54665;51.462;6.698;2023-07-24T03:02:07;7.73;;;3.90;;
67861;SDS011;54665;51.462;6.698;2023-07-24T03:04:08;12.38;;;4.30;;
67861;SDS011;54665;51.462;6.698;2023-07-24T03:06:08;9.67;;;4.00;;
67861;SDS011;54665;51.462;6.698;2023-07-24T03:08:08;10.37;;;4.20;;
67861;SDS011;54665;51.462;6.698;2023-07-24T03:10:09;9.83;;;4.57;;
67861;SDS011;54665;51.462;6.698;2023-07-24T03:12:09;9.32;;;3.92;;
67861;SDS011;54665;51.462;6.698;2023-07-24T03:14:10;9.50;;;4.20;;
67861;SDS011;54665;51.462;6.698;2023-07-24T03:16:10;10.10;;;4.30;;
67861;SDS011;54665;51.462;6.698;2023-07-24T03:18:10;8.37;;;4.17;;
67861;SDS011;54665;51.462;6.698;2023-07-24T03:20:17;11.07;;;4.43;;
67861;SDS011;54665;51.462;6.698;2023-07-24T03:22:18;11.65;;;4.15;;
67861;SDS011;54665;51.462;6.698;2023-07-24T03:24:18;11.97;;;4.37;;
67861;SDS011;54665;51.462;6.698;2023-07-24T03:26:19;11.17;;;4.50;;
67861;SDS011;54665;51.462;6.698;2023-07-24T03:28:20;10.40;;;3.70;;
67861;SDS011;54665;51.462;6.698;2023-07-24T03:30:21;11.60;;;4.03;;
67861;SDS011;54665;51.462;6.698;2023-07-24T03:32:21;8.98;;;4.28;;
67861;SDS011;54665;51.462;6.698;2023-07-24T03:34:22;8.40;;;4.20;;
67861;SDS011;54665;51.462;6.698;2023-07-24T03:36:22;12.63;;;4.53;;
67861;SDS011;54665;51.462;6.698;2023-07-24T03:38:22;8.43;;;3.95;;
67861;SDS011;54665;51.462;6.698;2023-07-24T03:40:24;10.77;;;4.40;;
67861;SDS011;54665;51.462;6.698;2023-07-24T03:42:34;13.57;;;4.53;;
67861;SDS011;54665;51.462;6.698;2023-07-24T03:44:34;10.57;;;4.25;;
67861;SDS011;54665;51.462;6.698;2023-07-24T03:46:35;11.23;;;4.50;;
67861;SDS011;54665;51.462;6.698;2023-07-24T03:48:35;11.00;;;4.23;;
67861;SDS011;54665;51.462;6.698;2023-07-24T03:50:35;13.23;;;4.63;;
67861;SDS011;54665;51.462;6.698;2023-07-24T03:52:36;10.00;;;4.40;;
67861;SDS011;54665;51.462;6.698;2023-07-24T03:54:36;14.30;;;4.83;;
67861;SDS011;54665;51.462;6.698;2023-07-24T03:56:37;11.50;;;4.87;;
67861;SDS011;54665;51.462;6.698;2023-07-24T03:58:37;12.67;;;4.77;;
67861;SDS011;54665;51.462;6.698;2023-07-24T04:00:38;11.88;;;4.63;;
67861;SDS011;54665;51.462;6.698;2023-07-24T04:02:38;13.00;;;4.40;;
67861;SDS011;54665;51.462;6.698;2023-07-24T04:04:38;13.47;;;4.60;;
67861;SDS011;54665;51.462;6.698;2023-07-24T04:06:39;13.53;;;4.77;;
67861;SDS011;54665;51.462;6.698;2023-07-24T04:08:39;12.67;;;5.27;;
67861;SDS011;54665;51.462;6.698;2023-07-24T04:10:39;11.50;;;4.80;;
67861;SDS011;54665;51.462;6.698;2023-07-24T04:12:39;14.37;;;4.97;;
67861;SDS011;54665;51.462;6.698;2023-07-24T04:14:40;13.32;;;4.70;;
67861;SDS011;54665;51.462;6.698;2023-07-24T04:16:40;13.97;;;5.43;;
67861;SDS011;54665;51.462;6.698;2023-07-24T04:18:40;17.83;;;5.10;;
67861;SDS011;54665;51.462;6.698;2023-07-24T04:20:41;14.03;;;5.00;;
67861;SDS011;54665;51.462;6.698;2023-07-24T04:22:41;14.03;;;5.17;;
67861;SDS011;54665;51.462;6.698;2023-07-24T04:24:41;12.33;;;4.23;;
67861;SDS011;54665;51.462;6.698;2023-07-24T04:26:41;11.90;;;4.27;;
67861;SDS011;54665;51.462;6.698;2023-07-24T04:28:42;12.47;;;4.37;;
67861;SDS011;54665;51.462;6.698;2023-07-24T04:30:42;13.07;;;4.30;;
67861;SDS011;54665;51.462;6.698;2023-07-24T04:32:43;11.13;;;4.27;;
67861;SDS011;54665;51.462;6.698;2023-07-24T04:34:43;13.80;;;4.73;;
67861;SDS011;54665;51.462;6.698;2023-07-24T04:36:43;11.73;;;4.50;;
67861;SDS011;54665;51.462;6.698;2023-07-24T04:38:44;14.17;;;4.40;;
67861;SDS011;54665;51.462;6.698;2023-07-24T04:40:44;12.37;;;4.33;;
67861;SDS011;54665;51.462;6.698;2023-07-24T04:42:44;12.77;;;4.33;;
67861;SDS011;54665;51.462;6.698;2023-07-24T04:44:44;13.13;;;3.95;;
67861;SDS011;54665;51.462;6.698;2023-07-24T04:46:45;12.63;;;4.50;;
67861;SDS011;54665;51.462;6.698;2023-07-24T04:48:45;12.03;;;4.43;;
67861;SDS011;54665;51.462;6.698;2023-07-24T04:50:45;13.83;;;4.57;;
67861;SDS011;54665;51.462;6.698;2023-07-24T04:52:46;12.93;;;4.60;;
67861;SDS011;54665;51.462;6.698;2023-07-24T04:54:46;14.00;;;4.83;;
67861;SDS011;54665;51.462;6.698;2023-07-24T04:56:46;10.47;;;4.30;;
67861;SDS011;54665;51.462;6.698;2023-07-24T04:58:47;12.07;;;4.18;;
67861;SDS011;54665;51.462;6.698;2023-07-24T05:00:47;13.17;;;4.20;;
67861;SDS011;54665;51.462;6.698;2023-07-24T05:02:47;12.43;;;4.63;;
67861;SDS011;54665;51.462;6.698;2023-07-24T05:04:47;10.53;;;4.07;;
67861;SDS011;54665;51.462;6.698;2023-07-24T05:06:48;9.60;;;4.10;;
67861;SDS011;54665;51.462;6.698;2023-07-24T05:08:48;11.03;;;3.93;;
67861;SDS011;54665;51.462;6.698;2023-07-24T05:10:55;12.20;;;4.37;;
67861;SDS011;54665;51.462;6.698;2023-07-24T05:12:56;12.18;;;4.25;;
67861;SDS011;54665;51.462;6.698;2023-07-24T05:14:57;11.50;;;3.93;;
67861;SDS011;54665;51.462;6.698;2023-07-24T05:16:57;12.03;;;4.17;;
67861;SDS011;54665;51.462;6.698;2023-07-24T05:18:57;11.93;;;4.07;;
67861;SDS011;54665;51.462;6.698;2023-07-24T05:20:57;13.43;;;4.70;;
67861;SDS011;54665;51.462;6.698;2023-07-24T05:22:58;11.67;;;4.20;;
67861;SDS011;54665;51.462;6.698;2023-07-24T05:24:58;11.03;;;4.37;;
67861;SDS011;54665;51.462;6.698;2023-07-24T05:26:58;11.60;;;4.40;;
67861;SDS011;54665;51.462;6.698;2023-07-24T05:28:59;10.97;;;4.50;;
67861;SDS011;54665;51.462;6.698;2023-07-24T05:31:00;11.70;;;4.40;;
67861;SDS011;54665;51.462;6.698;2023-07-24T05:33:04;11.23;;;3.97;;
67861;SDS011;54665;51.462;6.698;2023-07-24T05:35:04;10.90;;;4.03;;
67861;SDS011;54665;51.462;6.698;2023-07-24T05:37:05;9.82;;;4.43;;
67861;SDS011;54665;51.462;6.698;2023-07-24T05:39:05;11.30;;;4.23;;
67861;SDS011;54665;51.462;6.698;2023-07-24T05:41:06;11.77;;;4.50;;
67861;SDS011;54665;51.462;6.698;2023-07-24T05:43:06;13.10;;;4.33;;
67861;SDS011;54665;51.462;6.698;2023-07-24T05:45:07;10.03;;;4.17;;
67861;SDS011;54665;51.462;6.698;2023-07-24T05:47:08;9.27;;;4.03;;
67861;SDS011;54665;51.462;6.698;2023-07-24T05:49:08;11.43;;;4.40;;
67861;SDS011;54665;51.462;6.698;2023-07-24T05:51:08;10.37;;;4.17;;
67861;SDS011;54665;51.462;6.698;2023-07-24T05:53:09;9.20;;;4.15;;
67861;SDS011;54665;51.462;6.698;2023-07-24T05:55:09;10.30;;;4.20;;
67861;SDS011;54665;51.462;6.698;2023-07-24T05:57:09;11.27;;;4.03;;
67861;SDS011;54665;51.462;6.698;2023-07-24T05:59:10;10.07;;;4.30;;
67861;SDS011;54665;51.462;6.698;2023-07-24T06:01:10;9.90;;;4.50;;
67861;SDS011;54665;51.462;6.698;2023-07-24T06:03:10;10.50;;;4.50;;
67861;SDS011;54665;51.462;6.698;2023-07-24T06:05:11;10.80;;;4.03;;
67861;SDS011;54665;51.462;6.698;2023-07-24T06:07:11;10.48;;;4.05;;
67861;SDS011;54665;51.462;6.698;2023-07-24T06:09:11;9.93;;;4.47;;
67861;SDS011;54665;51.462;6.698;2023-07-24T06:11:11;10.03;;;4.10;;
67861;SDS011;54665;51.462;6.698;2023-07-24T06:13:12;11.57;;;4.20;;
67861;SDS011;54665;51.462;6.698;2023-07-24T06:15:12;11.30;;;4.40;;
67861;SDS011;54665;51.462;6.698;2023-07-24T06:17:12;9.83;;;4.23;;
67861;SDS011;54665;51.462;6.698;2023-07-24T06:19:13;9.40;;;4.10;;
67861;SDS011;54665;51.462;6.698;2023-07-24T06:21:13;11.87;;;4.60;;
67861;SDS011;54665;51.462;6.698;2023-07-24T06:23:13;11.63;;;4.90;;
67861;SDS011;54665;51.462;6.698;2023-07-24T06:25:13;11.45;;;4.50;;
67861;SDS011;54665;51.462;6.698;2023-07-24T06:27:14;11.83;;;4.40;;
67861;SDS011;54665;51.462;6.698;2023-07-24T06:29:14;10.33;;;4.10;;
67861;SDS011;54665;51.462;6.698;2023-07-24T06:31:15;9.40;;;4.00;;
67861;SDS011;54665;51.462;6.698;2023-07-24T06:33:15;8.55;;;4.07;;
67861;SDS011;54665;51.462;6.698;2023-07-24T06:35:15;10.63;;;4.30;;
67861;SDS011;54665;51.462;6.698;2023-07-24T06:37:16;9.37;;;4.20;;
67861;SDS011;54665;51.462;6.698;2023-07-24T06:39:16;10.03;;;4.20;;
67861;SDS011;54665;51.462;6.698;2023-07-24T06:41:16;9.30;;;4.17;;
67861;SDS011;54665;51.462;6.698;2023-07-24T06:43:17;8.47;;;4.20;;
67861;SDS011;54665;51.462;6.698;2023-07-24T06:45:17;11.80;;;4.17;;
67861;SDS011;54665;51.462;6.698;2023-07-24T06:47:17;10.02;;;4.40;;
67861;SDS011;54665;51.462;6.698;2023-07-24T06:49:18;8.50;;;3.97;;
67861;SDS011;54665;51.462;6.698;2023-07-24T06:51:18;11.47;;;4.50;;
67861;SDS011;54665;51.462;6.698;2023-07-24T06:53:18;7.83;;;4.30;;
67861;SDS011;54665;51.462;6.698;2023-07-24T06:55:19;8.47;;;4.40;;
67861;SDS011;54665;51.462;6.698;2023-07-24T06:57:19;10.02;;;4.28;;
67861;SDS011;54665;51.462;6.698;2023-07-24T06:59:20;11.73;;;4.37;;
67861;SDS011;54665;51.462;6.698;2023-07-24T07:01:20;10.17;;;4.33;;
67861;SDS011;54665;51.462;6.698;2023-07-24T07:03:20;6.37;;;2.97;;
67861;SDS011;54665;51.462;6.698;2023-07-24T07:05:20;5.37;;;2.40;;
67861;SDS011;54665;51.462;6.698;2023-07-24T07:07:21;4.60;;;2.10;;
67861;SDS011;54665;51.462;6.698;2023-07-24T07:09:21;4.17;;;1.90;;
67861;SDS011;54665;51.462;6.698;2023-07-24T07:11:22;4.57;;;2.10;;
67861;SDS011;54665;51.462;6.698;2023-07-24T07:13:22;4.77;;;2.00;;
67861;SDS011;54665;51.462;6.698;2023-07-24T07:15:22;3.80;;;1.70;;
67861;SDS011;54665;51.462;6.698;2023-07-24T07:17:23;5.97;;;1.95;;
67861;SDS011;54665;51.462;6.698;2023-07-24T07:19:23;3.30;;;1.83;;
67861;SDS011;54665;51.462;6.698;2023-07-24T07:21:23;2.93;;;1.60;;
67861;SDS011;54665;51.462;6.698;2023-07-24T07:23:23;3.57;;;1.97;;
67861;SDS011;54665;51.462;6.698;2023-07-24T07:25:24;4.07;;;1.83;;
67861;SDS011;54665;51.462;6.698;2023-07-24T07:27:24;3.57;;;1.87;;
67861;SDS011;54665;51.462;6.698;2023-07-24T07:29:24;3.60;;;1.90;;
67861;SDS011;54665;51.462;6.698;2023-07-24T07:31:25;3.37;;;1.90;;
67861;SDS011;54665;51.462;6.698;2023-07-24T07:33:25;4.50;;;1.85;;
67861;SDS011;54665;51.462;6.698;2023-07-24T07:35:25;3.70;;;1.70;;
67861;SDS011;54665;51.462;6.698;2023-07-24T07:37:26;3.30;;;1.60;;
67861;SDS011;54665;51.462;6.698;2023-07-24T07:39:26;3.57;;;2.00;;
67861;SDS011;54665;51.462;6.698;2023-07-24T07:41:26;5.83;;;1.90;;
67861;SDS011;54665;51.462;6.698;2023-07-24T07:43:27;3.50;;;2.00;;
67861;SDS011;54665;51.462;6.698;2023-07-24T07:45:27;4.63;;;1.83;;
67861;SDS011;54665;51.462;6.698;2023-07-24T07:47:27;3.30;;;1.80;;
67861;SDS011;54665;51.462;6.698;2023-07-24T07:49:28;4.00;;;1.97;;
67861;SDS011;54665;51.462;6.698;2023-07-24T07:51:29;4.70;;;2.00;;
67861;SDS011;54665;51.462;6.698;2023-07-24T07:53:29;5.27;;;2.00;;
67861;SDS011;54665;51.462;6.698;2023-07-24T07:55:29;4.53;;;1.97;;
67861;SDS011;54665;51.462;6.698;2023-07-24T07:57:30;3.00;;;1.80;;
67861;SDS011;54665;51.462;6.698;2023-07-24T07:59:30;3.67;;;1.90;;
67861;SDS011;54665;51.462;6.698;2023-07-24T08:01:30;4.70;;;2.07;;
67861;SDS011;54665;51.462;6.698;2023-07-24T08:03:30;3.47;;;1.70;;
67861;SDS011;54665;51.462;6.698;2023-07-24T08:05:31;2.55;;;1.50;;
67861;SDS011;54665;51.462;6.698;2023-07-24T08:07:31;2.73;;;1.33;;
67861;SDS011;54665;51.462;6.698;2023-07-24T08:09:31;2.67;;;1.10;;
67861;SDS011;54665;51.462;6.698;2023-07-24T08:11:32;2.13;;;1.10;;
67861;SDS011;54665;51.462;6.698;2023-07-24T08:13:32;2.43;;;1.07;;
67861;SDS011;54665;51.462;6.698;2023-07-24T08:15:34;1.73;;;1.00;;
67861;SDS011;54665;51.462;6.698;2023-07-24T08:17:37;1.65;;;0.93;;
67861;SDS011;54665;51.462;6.698;2023-07-24T08:19:38;3.50;;;1.10;;
67861;SDS011;54665;51.462;6.698;2023-07-24T08:21:38;2.00;;;1.00;;
67861;SDS011;54665;51.462;6.698;2023-07-24T08:23:38;2.00;;;1.20;;
67861;SDS011;54665;51.462;6.698;2023-07-24T08:25:38;2.80;;;1.00;;
67861;SDS011;54665;51.462;6.698;2023-07-24T08:27:39;1.83;;;1.00;;
67861;SDS011;54665;51.462;6.698;2023-07-24T08:29:39;1.83;;;1.00;;
67861;SDS011;54665;51.462;6.698;2023-07-24T08:31:39;2.17;;;1.20;;
67861;SDS011;54665;51.462;6.698;2023-07-24T08:33:40;2.00;;;1.10;;
67861;SDS011;54665;51.462;6.698;2023-07-24T08:35:40;3.70;;;1.20;;
67861;SDS011;54665;51.462;6.698;2023-07-24T08:37:42;2.13;;;1.30;;
67861;SDS011;54665;51.462;6.698;2023-07-24T08:39:43;4.95;;;1.25;;
67861;SDS011;54665;51.462;6.698;2023-07-24T08:41:43;3.10;;;1.10;;
67861;SDS011;54665;51.462;6.698;2023-07-24T08:43:44;2.80;;;1.30;;
67861;SDS011;54665;51.462;6.698;2023-07-24T08:45:44;2.73;;;1.20;;
67861;SDS011;54665;51.462;6.698;2023-07-24T08:47:44;1.47;;;1.07;;
67861;SDS011;54665;51.462;6.698;2023-07-24T08:49:45;2.92;;;1.20;;
67861;SDS011;54665;51.462;6.698;2023-07-24T08:51:47;1.92;;;1.30;;
67861;SDS011;54665;51.462;6.698;2023-07-24T08:53:47;3.07;;;1.13;;
67861;SDS011;54665;51.462;6.698;2023-07-24T08:55:48;2.15;;;1.20;;
67861;SDS011;54665;51.462;6.698;2023-07-24T08:57:49;2.67;;;1.10;;
67861;SDS011;54665;51.462;6.698;2023-07-24T08:59:49;2.20;;;1.30;;
67861;SDS011;54665;51.462;6.698;2023-07-24T09:01:49;2.33;;;1.20;;
67861;SDS011;54665;51.462;6.698;2023-07-24T09:03:50;2.37;;;1.03;;
67861;SDS011;54665;51.462;6.698;2023-07-24T09:05:50;3.13;;;1.30;;
67861;SDS011;54665;51.462;6.698;2023-07-24T09:07:51;1.80;;;1.20;;
67861;SDS011;54665;51.462;6.698;2023-07-24T09:09:53;2.00;;;1.20;;
67861;SDS011;54665;51.462;6.698;2023-07-24T09:11:53;2.90;;;1.30;;
67861;SDS011;54665;51.462;6.698;2023-07-24T09:13:54;2.90;;;1.40;;
67861;SDS011;54665;51.462;6.698;2023-07-24T09:15:54;2.72;;;1.30;;
67861;SDS011;54665;51.462;6.698;2023-07-24T09:17:54;1.80;;;1.10;;
67861;SDS011;54665;51.462;6.698;2023-07-24T09:19:56;2.43;;;1.20;;
67861;SDS011;54665;51.462;6.698;2023-07-24T09:22:06;2.30;;;1.10;;
67861;SDS011;54665;51.462;6.698;2023-07-24T09:24:14;2.03;;;1.20;;
67861;SDS011;54665;51.462;6.698;2023-07-24T09:26:14;2.00;;;1.20;;
67861;SDS011;54665;51.462;6.698;2023-07-24T09:28:16;2.67;;;1.10;;
67861;SDS011;54665;51.462;6.698;2023-07-24T09:30:17;1.80;;;1.10;;
67861;SDS011;54665;51.462;6.698;2023-07-24T09:32:24;3.47;;;1.30;;
67861;SDS011;54665;51.462;6.698;2023-07-24T09:34:25;2.38;;;1.20;;
67861;SDS011;54665;51.462;6.698;2023-07-24T09:36:26;2.73;;;1.17;;
67861;SDS011;54665;51.462;6.698;2023-07-24T09:38:38;2.42;;;1.40;;
67861;SDS011;54665;51.462;6.698;2023-07-24T09:40:40;1.83;;;1.10;;
67861;SDS011;54665;51.462;6.698;2023-07-24T09:42:41;5.82;;;1.08;;
67861;SDS011;54665;51.462;6.698;2023-07-24T09:44:42;2.10;;;1.20;;
67861;SDS011;54665;51.462;6.698;2023-07-24T09:46:42;2.00;;;1.27;;
67861;SDS011;54665;51.462;6.698;2023-07-24T09:48:43;2.97;;;1.40;;
67861;SDS011;54665;51.462;6.698;2023-07-24T09:50:44;2.50;;;1.30;;
67861;SDS011;54665;51.462;6.698;2023-07-24T09:52:46;2.63;;;1.38;;
67861;SDS011;54665;51.462;6.698;2023-07-24T09:57:13;2.08;;;1.35;;
67861;SDS011;54665;51.462;6.698;2023-07-24T09:59:13;2.63;;;1.30;;
67861;SDS011;54665;51.462;6.698;2023-07-24T10:01:14;2.23;;;1.47;;
67861;SDS011;54665;51.462;6.698;2023-07-24T10:03:15;2.75;;;1.40;;
67861;SDS011;54665;51.462;6.698;2023-07-24T10:05:16;1.95;;;1.40;;
67861;SDS011;54665;51.462;6.698;2023-07-24T10:07:17;2.00;;;1.33;;
67861;SDS011;54665;51.462;6.698;2023-07-24T10:09:18;2.83;;;1.30;;
67861;SDS011;54665;51.462;6.698;2023-07-24T10:11:19;2.70;;;1.43;;
67861;SDS011;54665;51.462;6.698;2023-07-24T10:13:20;2.17;;;1.40;;
67861;SDS011;54665;51.462;6.698;2023-07-24T10:15:21;1.88;;;1.38;;
67861;SDS011;54665;51.462;6.698;2023-07-24T10:17:34;2.40;;;1.43;;
67861;SDS011;54665;51.462;6.698;2023-07-24T10:19:40;2.83;;;1.42;;
67861;SDS011;54665;51.462;6.698;2023-07-24T10:21:46;2.72;;;1.40;;
67861;SDS011;54665;51.462;6.698;2023-07-24T10:23:47;2.10;;;1.58;;
67861;SDS011;54665;51.462;6.698;2023-07-24T10:25:49;3.03;;;1.50;;
67861;SDS011;54665;51.462;6.698;2023-07-24T10:27:50;2.60;;;1.50;;
67861;SDS011;54665;51.462;6.698;2023-07-24T10:30:00;2.60;;;1.40;;
67861;SDS011;54665;51.462;6.698;2023-07-24T10:32:01;2.38;;;1.50;;
67861;SDS011;54665;51.462;6.698;2023-07-24T10:34:04;2.60;;;1.60;;
67861;SDS011;54665;51.462;6.698;2023-07-24T10:36:06;2.33;;;1.40;;
67861;SDS011;54665;51.462;6.698;2023-07-24T10:38:08;2.33;;;1.70;;
67861;SDS011;54665;51.462;6.698;2023-07-24T10:40:18;3.43;;;1.67;;
67861;SDS011;54665;51.462;6.698;2023-07-24T10:42:22;2.45;;;1.70;;
67861;SDS011;54665;51.462;6.698;2023-07-24T10:44:32;3.53;;;1.70;;
67861;SDS011;54665;51.462;6.698;2023-07-24T10:46:36;2.85;;;1.63;;
67861;SDS011;54665;51.462;6.698;2023-07-24T10:48:37;3.40;;;1.80;;
67861;SDS011;54665;51.462;6.698;2023-07-24T10:50:46;4.67;;;1.90;;
67861;SDS011;54665;51.462;6.698;2023-07-24T10:52:47;3.75;;;2.33;;
67861;SDS011;54665;51.462;6.698;2023-07-24T10:54:50;4.07;;;2.53;;
67861;SDS011;54665;51.462;6.698;2023-07-24T10:56:57;4.85;;;2.30;;
67861;SDS011;54665;51.462;6.698;2023-07-24T10:59:04;4.65;;;2.15;;
67861;SDS011;54665;51.462;6.698;2023-07-24T11:01:05;3.60;;;2.20;;
67861;SDS011;54665;51.462;6.698;2023-07-24T11:03:10;4.38;;;2.30;;
67861;SDS011;54665;51.462;6.698;2023-07-24T11:05:12;3.57;;;2.30;;
67861;SDS011;54665;51.462;6.698;2023-07-24T11:07:14;3.47;;;2.22;;
67861;SDS011;54665;51.462;6.698;2023-07-24T11:09:14;24.17;;;3.00;;
67861;SDS011;54665;51.462;6.698;2023-07-24T11:11:14;17.47;;;3.60;;
67861;SDS011;54665;51.462;6.698;2023-07-24T11:13:16;12.13;;;3.40;;
67861;SDS011;54665;51.462;6.698;2023-07-24T11:15:23;7.43;;;3.50;;
67861;SDS011;54665;51.462;6.698;2023-07-24T11:17:37;8.88;;;3.25;;
67861;SDS011;54665;51.462;6.698;2023-07-24T11:19:38;9.23;;;3.30;;
67861;SDS011;54665;51.462;6.698;2023-07-24T11:21:38;9.40;;;3.03;;
67861;SDS011;54665;51.462;6.698;2023-07-24T11:23:48;6.27;;;2.90;;
67861;SDS011;54665;51.462;6.698;2023-07-24T11:25:50;7.13;;;2.65;;
67861;SDS011;54665;51.462;6.698;2023-07-24T11:27:51;5.28;;;2.55;;
67861;SDS011;54665;51.462;6.698;2023-07-24T11:29:52;4.37;;;2.17;;
67861;SDS011;54665;51.462;6.698;2023-07-24T11:31:53;4.67;;;2.50;;
67861;SDS011;54665;51.462;6.698;2023-07-24T11:33:54;4.20;;;2.30;;
67861;SDS011;54665;51.462;6.698;2023-07-24T11:35:54;6.10;;;2.50;;
67861;SDS011;54665;51.462;6.698;2023-07-24T11:37:55;5.37;;;2.70;;
67861;SDS011;54665;51.462;6.698;2023-07-24T11:39:59;10.10;;;2.90;;
67861;SDS011;54665;51.462;6.698;2023-07-24T11:42:01;6.05;;;2.80;;
67861;SDS011;54665;51.462;6.698;2023-07-24T11:44:01;5.73;;;2.70;;
67861;SDS011;54665;51.462;6.698;2023-07-24T11:46:01;5.68;;;2.83;;
67861;SDS011;54665;51.462;6.698;2023-07-24T11:48:02;6.03;;;3.27;;
67861;SDS011;54665;51.462;6.698;2023-07-24T11:50:02;5.50;;;3.10;;
67861;SDS011;54665;51.462;6.698;2023-07-24T11:52:03;5.97;;;3.20;;
67861;SDS011;54665;51.462;6.698;2023-07-24T11:54:08;9.57;;;3.35;;
67861;SDS011;54665;51.462;6.698;2023-07-24T11:56:18;9.43;;;3.00;;
67861;SDS011;54665;51.462;6.698;2023-07-24T11:58:19;28.33;;;3.97;;
67861;SDS011;54665;51.462;6.698;2023-07-24T12:00:20;250.63;;;14.55;;
67861;SDS011;54665;51.462;6.698;2023-07-24T12:02:22;829.23;;;45.93;;
67861;SDS011;54665;51.462;6.698;2023-07-24T12:04:22;356.33;;;18.77;;
67861;SDS011;54665;51.462;6.698;2023-07-24T12:06:23;28.80;;;3.77;;
67861;SDS011;54665;51.462;6.698;2023-07-24T12:08:30;4.60;;;2.33;;
67861;SDS011;54665;51.462;6.698;2023-07-24T12:10:37;5.38;;;2.92;;
67861;SDS011;54665;51.462;6.698;2023-07-24T12:12:45;3.60;;;2.40;;